Hauptseite
METAR-TAF:

METAR-TAF

Flughäfen :

Flughafen Bamako

Bamako, Mali

Breite: 12-32N, Länge: 007-57W, Höhe: 380 m

Beobachtung

Neuester Wetterbericht von vor 43 Minuten, um 21:30 UTC
Wind 6 kt aus Ost/Nordost
Temperatur 34°C
Luftfeuchtigkeit 11%
Luftdruck 1011 hPa
Sichtweite: 6000 m

METAR: GABS 132130Z 07006KT 6000 NSC 34/M01 Q1011 NOSIG

Zeit: 22:13 (22:13 UTC)

Prognose

Neuester Wetterbericht von vor 5 Stunden und 13 Minuten, um 17:00 UTC
Gültige Prognose vom 13 um 18 UTC bis 14 um 24 UTC
Wind 8 kt aus Nordost
Sichtweite: 8000 m
Zeitweise
vom 14 um 06 UTC bis 14 um 10 UTC
Sichtweite: 4000 m
verbreitet Staub,

TAF: GABS 131700Z 1318/1424 05008KT 8000 NSC TEMPO 1406/1410 4000 DU

Wetterbeobachtungen und Prognosen von mehr als 4000 Flughäfen (METAR und TAF Bericht).

Die verfügbaren Stationen werden durch gelbe und rote Markierungen auf der Karte dargestellt.

Führen Sie die Maus auf sie, um den Namen der Station zu sehen.

Darauf klicken, um die Beobachtung von Wetterbeobachtungen und Prognosen zu sehen.

Um die Karte zu ändern : klicken Sie auf den grünen Tasten mit einem schwarzen Kreuz Zum Vergrößern, auf den grünen Button mit einem Gedankenstrich zu verkleinern, oder auf die grünen Pfeile für benachbarte Karten.


METAR-TAF: